Lyons, OR

9:32 PM PDT on June 02, 2015 (GMT -0700)
Fern Ridge Road | | Change Station
CLOSE
Current Station
Personal Weather Station
Location: Stayton, OR
Elevation: 807 ft
Nearby Weather Stations

Elev 807 ft 44.81 °N, 122.71 °W | Updated 8 seconds ago

Overcast
Overcast
55.6 °F
Feels Like 55.6 °F
N
0.0
Wind Variable Wind from North
Gusts 0.0 mph

Today
High -- | Low -- °F
--% Chance of Precip.
Yesterday
High -- | Low -- °F
Precip. -- in
5:27 AM 8:49 PM
Full, 100% visible
Pressure 30.11 in
Visibility 10.0 miles
Clouds Mostly Cloudy 2100 ft
Overcast 2800 ft
Dew Point 53 °F
Humidity 91%
Rainfall 0.51 in
Snow Depth Not available.
UV 0.0 out of 12
Pollen 3.60 out of 12
Air Quality Not available.
Flu Activity Sporadic
METAR KSLE 030356Z 35003KT 10SM BKN021 OVC028 15/11 A3011 RMK AO2 SLP195 T01500111

More Conditions Fewer Conditions

Pressure 30.11 in
Visibility 10.0 miles
Clouds Mostly Cloudy 2100 ft
Overcast 2800 ft
Dew Point 53 °F
Humidity 91%
Rainfall 0.51 in
Snow Depth Not available.
UV 0.0 out of 12
Pollen 3.60 out of 12
Air Quality Not available.
Flu Activity Sporadic
METAR KSLE 030356Z 35003KT 10SM BKN021 OVC028 15/11 A3011 RMK AO2 SLP195 T01500111

More Conditions Fewer Conditions

10-Day Weather Forecast

×

Almanac

Astronomy

Jun. 02, 2015 Rise Set
Actual Time
Civil Twilight
Nautical Twilight
Astronomical Twilight
Moon
Length of Visible Light
Length of Day
Tomorrow will be .
, % of the Moon is Illuminated

Today's Extremes

State Highs State Lows

Community

WunderPhotos

Upload Photos

1,826,164 photos uploaded!

WunderBlogs® & News

Nearby

Air Quality

  Air Quality AQ Index Pollutant
Not available.

Snow Depth

Station Depth Elevation

Earthquake Activity

City Distance Mag. Time & Date
Minimum magnitude displayed is 2.5.

Coastal Water Temperatures

Place Temperature

Stations

Nearby Weather Stations

Station Location Temp. Windchill Dew Point Humidity Wind Precip. Elev Updated Type